createdAt,value
2022-11-25T00:00:16.248Z,0.00
2022-11-25T00:01:16.177Z,0.00
2022-11-25T00:02:16.221Z,0.00
2022-11-25T00:03:16.068Z,0.00
2022-11-25T00:04:15.997Z,0.00
2022-11-25T00:05:15.883Z,0.00
2022-11-25T00:06:15.852Z,0.00
2022-11-25T00:07:15.854Z,0.00
2022-11-25T00:08:15.687Z,0.00
2022-11-25T00:09:15.695Z,0.00
2022-11-25T00:10:15.612Z,0.00
2022-11-25T00:11:15.558Z,0.00
2022-11-25T00:12:15.412Z,0.00
2022-11-25T00:13:15.347Z,0.00
2022-11-25T00:14:15.307Z,0.00
2022-11-25T00:15:15.221Z,0.00
2022-11-25T00:16:15.219Z,0.00
2022-11-25T00:17:15.068Z,0.00
2022-11-25T00:18:15.019Z,0.00
2022-11-25T00:19:14.950Z,0.00
2022-11-25T00:20:14.872Z,0.00
2022-11-25T00:21:14.789Z,0.00
2022-11-25T00:22:14.726Z,0.00
2022-11-25T00:23:14.817Z,0.00
2022-11-25T00:24:14.607Z,0.00
2022-11-25T00:25:14.512Z,0.00
2022-11-25T00:26:14.447Z,0.00
2022-11-25T00:27:14.398Z,0.00
2022-11-25T00:28:14.327Z,0.00
2022-11-25T00:29:14.353Z,0.00
2022-11-25T00:30:14.188Z,0.00
2022-11-25T00:31:14.188Z,0.00
2022-11-25T00:32:14.045Z,0.00
2022-11-25T00:33:14.049Z,0.00
2022-11-25T00:34:13.932Z,0.00
2022-11-25T00:35:13.854Z,0.00
2022-11-25T00:36:13.779Z,0.00
2022-11-25T00:37:13.708Z,0.00
2022-11-25T00:38:13.691Z,0.00
2022-11-25T00:39:13.559Z,0.00
2022-11-25T00:40:13.488Z,0.00
2022-11-25T00:41:13.418Z,0.00
2022-11-25T00:42:13.363Z,0.00
2022-11-25T00:43:13.371Z,0.00
2022-11-25T00:44:13.218Z,0.00
2022-11-25T00:45:13.289Z,0.00
2022-11-25T00:46:13.138Z,0.00
2022-11-25T00:47:13.020Z,0.00
2022-11-25T00:48:12.944Z,0.00
2022-11-25T00:49:12.875Z,0.00
2022-11-25T00:50:12.864Z,0.00
2022-11-25T00:51:12.757Z,0.00
2022-11-25T00:52:12.875Z,0.00
2022-11-25T00:53:12.603Z,0.00
2022-11-25T00:54:12.533Z,0.00
2022-11-25T00:55:12.466Z,0.00
2022-11-25T00:56:12.394Z,0.00
2022-11-25T00:57:12.351Z,0.00
2022-11-25T00:58:12.277Z,0.00
2022-11-25T00:59:12.186Z,0.00
2022-11-25T01:00:12.120Z,0.00
2022-11-25T01:01:12.119Z,0.00
2022-11-25T01:02:12.097Z,0.00
2022-11-25T01:03:11.920Z,0.00
2022-11-25T01:04:11.852Z,0.00
2022-11-25T01:05:11.783Z,0.00
2022-11-25T01:06:11.736Z,0.00
2022-11-25T01:07:11.671Z,0.00
2022-11-25T01:08:11.579Z,0.00
2022-11-25T01:09:11.520Z,0.00
2022-11-25T01:10:11.458Z,0.00
2022-11-25T01:11:11.371Z,0.00
2022-11-25T01:12:11.313Z,0.00
2022-11-25T01:13:11.246Z,0.00
2022-11-25T01:14:11.181Z,0.00
2022-11-25T01:15:11.097Z,0.00
2022-11-25T01:16:11.090Z,0.00
2022-11-25T01:17:10.961Z,0.00
2022-11-25T01:18:10.900Z,0.00
2022-11-25T01:19:10.878Z,0.00
2022-11-25T01:20:10.797Z,0.00
2022-11-25T01:21:10.706Z,0.00
2022-11-25T01:22:10.643Z,0.00
2022-11-25T01:23:10.551Z,0.00
2022-11-25T01:24:10.486Z,0.00
2022-11-25T01:25:10.440Z,0.00
2022-11-25T01:26:10.376Z,0.00
2022-11-25T01:27:10.282Z,0.00
2022-11-25T01:28:10.317Z,0.00
2022-11-25T01:29:10.142Z,0.00
2022-11-25T01:30:10.080Z,0.00
2022-11-25T01:31:10.135Z,0.00
2022-11-25T01:32:10.030Z,0.00
2022-11-25T01:33:09.927Z,0.00
2022-11-25T01:34:09.803Z,0.00
2022-11-25T01:35:09.741Z,0.00
2022-11-25T01:36:09.705Z,0.00
2022-11-25T01:37:09.623Z,0.00
2022-11-25T01:38:09.542Z,0.00
2022-11-25T01:39:09.498Z,0.00
2022-11-25T01:40:09.399Z,0.00
2022-11-25T01:41:09.331Z,0.00
2022-11-25T01:42:09.261Z,0.00
2022-11-25T01:43:09.206Z,0.00
2022-11-25T01:44:09.121Z,0.00
2022-11-25T01:45:09.117Z,0.00
2022-11-25T01:46:09.261Z,0.00
2022-11-25T01:47:08.940Z,0.00
2022-11-25T01:48:08.841Z,0.00
2022-11-25T01:49:08.789Z,0.00
2022-11-25T01:50:08.732Z,0.00
2022-11-25T01:51:08.732Z,0.00
2022-11-25T01:52:08.581Z,0.00
2022-11-25T01:53:08.504Z,0.00
2022-11-25T01:54:08.455Z,0.00
2022-11-25T01:55:08.377Z,0.00
2022-11-25T01:56:08.319Z,0.00
2022-11-25T01:57:08.236Z,0.00
2022-11-25T01:58:08.195Z,0.00
2022-11-25T01:59:08.115Z,0.00
2022-11-25T02:00:08.043Z,0.00
2022-11-25T02:01:08.047Z,0.00
2022-11-25T02:02:08.001Z,0.00
2022-11-25T02:03:07.829Z,0.00
2022-11-25T02:04:07.763Z,0.00
2022-11-25T02:05:07.751Z,0.00
2022-11-25T02:06:07.619Z,0.00
2022-11-25T02:07:07.553Z,0.00
2022-11-25T02:08:07.486Z,0.00
2022-11-25T02:09:07.429Z,0.00
2022-11-25T02:10:07.465Z,0.00
2022-11-25T02:11:07.278Z,0.00
2022-11-25T02:12:07.208Z,0.00
2022-11-25T02:13:07.142Z,0.00
2022-11-25T02:14:07.097Z,0.00
2022-11-25T02:15:07.059Z,0.00
2022-11-25T02:16:06.968Z,0.00
2022-11-25T02:17:06.889Z,0.00
2022-11-25T02:18:06.811Z,0.00
2022-11-25T02:19:07.517Z,0.00
2022-11-25T02:20:06.686Z,0.00
2022-11-25T02:21:06.610Z,0.00
2022-11-25T02:22:06.545Z,0.00
2022-11-25T02:23:06.469Z,0.00
2022-11-25T02:24:06.403Z,0.00
2022-11-25T02:25:06.331Z,0.00
2022-11-25T02:26:06.340Z,0.00
2022-11-25T02:27:06.185Z,0.00
2022-11-25T02:28:06.121Z,0.00
2022-11-25T02:29:06.054Z,0.00
2022-11-25T02:30:05.987Z,0.00
2022-11-25T02:31:05.964Z,0.00
2022-11-25T02:32:05.927Z,0.00
2022-11-25T02:33:05.774Z,0.00
2022-11-25T02:34:05.719Z,0.00
2022-11-25T02:35:05.654Z,0.00
2022-11-25T02:36:05.638Z,0.00
2022-11-25T02:37:05.502Z,0.00
2022-11-25T02:38:05.499Z,0.00
2022-11-25T02:39:05.362Z,0.00
2022-11-25T02:40:05.329Z,0.00
2022-11-25T02:41:05.287Z,0.00
2022-11-25T02:42:05.220Z,0.00
2022-11-25T02:43:05.161Z,0.00
2022-11-25T02:44:05.030Z,0.00
2022-11-25T02:45:04.951Z,0.00
2022-11-25T02:46:04.980Z,0.00
2022-11-25T02:47:04.833Z,0.00
2022-11-25T02:48:04.769Z,0.00
2022-11-25T02:49:09.324Z,0.00
2022-11-25T02:50:04.620Z,0.00
2022-11-25T02:51:04.574Z,0.00
2022-11-25T02:52:04.499Z,0.00
2022-11-25T02:53:04.476Z,0.00
2022-11-25T02:54:04.405Z,0.00
2022-11-25T02:55:04.328Z,0.00
2022-11-25T02:56:04.201Z,0.00
2022-11-25T02:57:04.147Z,0.00
2022-11-25T02:58:04.076Z,0.00
2022-11-25T02:59:04.025Z,0.00
2022-11-25T03:00:03.959Z,0.00
2022-11-25T03:01:03.877Z,0.00
2022-11-25T03:02:03.878Z,0.00
2022-11-25T03:03:03.721Z,0.00
2022-11-25T03:04:03.676Z,0.00
2022-11-25T03:05:03.653Z,0.00
2022-11-25T03:06:03.550Z,0.00
2022-11-25T03:07:03.447Z,0.00
2022-11-25T03:08:03.403Z,0.00
2022-11-25T03:09:03.340Z,0.00
2022-11-25T03:10:03.267Z,0.00
2022-11-25T03:11:03.231Z,0.00
2022-11-25T03:12:03.125Z,0.00
2022-11-25T03:13:03.112Z,0.00
2022-11-25T03:14:02.987Z,0.00
2022-11-25T03:15:02.910Z,0.00
2022-11-25T03:16:02.888Z,0.00
2022-11-25T03:17:02.763Z,0.00
2022-11-25T03:18:02.706Z,0.00
2022-11-25T03:19:02.740Z,0.00
2022-11-25T03:20:02.563Z,0.00
2022-11-25T03:21:02.583Z,0.00
2022-11-25T03:22:02.422Z,0.00
2022-11-25T03:23:02.354Z,0.00
2022-11-25T03:24:02.290Z,0.00
2022-11-25T03:25:02.245Z,0.00
2022-11-25T03:26:02.176Z,0.00
2022-11-25T03:27:02.118Z,0.00
2022-11-25T03:28:02.017Z,0.00
2022-11-25T03:29:01.979Z,0.00
2022-11-25T03:30:01.894Z,0.00
2022-11-25T03:31:01.825Z,0.00
2022-11-25T03:32:04.302Z,0.00
2022-11-25T03:33:01.680Z,0.00
2022-11-25T03:34:01.605Z,0.00
2022-11-25T03:35:01.537Z,0.00
2022-11-25T03:36:01.504Z,0.00
2022-11-25T03:37:01.569Z,0.00
2022-11-25T03:38:01.329Z,0.00
2022-11-25T03:39:01.360Z,0.00
2022-11-25T03:40:01.228Z,0.00
2022-11-25T03:41:01.227Z,0.00
2022-11-25T03:42:01.069Z,0.00
2022-11-25T03:43:01.001Z,0.00
2022-11-25T03:44:00.928Z,0.00
2022-11-25T03:45:00.940Z,0.00
2022-11-25T03:46:00.868Z,0.00
2022-11-25T03:47:00.766Z,0.00
2022-11-25T03:48:00.662Z,0.00
2022-11-25T03:49:00.584Z,0.00
2022-11-25T03:50:00.591Z,0.00
2022-11-25T03:51:00.468Z,0.00
2022-11-25T03:52:00.381Z,0.00
2022-11-25T03:53:00.316Z,0.00
2022-11-25T03:54:00.245Z,0.00
2022-11-25T03:55:00.234Z,0.00
2022-11-25T03:56:00.157Z,0.00
2022-11-25T03:57:00.108Z,0.00
2022-11-25T03:58:00.007Z,0.00
2022-11-25T03:58:59.910Z,0.00
2022-11-25T03:59:59.907Z,0.00
2022-11-25T04:00:59.862Z,0.00
2022-11-25T04:01:59.728Z,0.00
2022-11-25T04:02:59.759Z,0.00
2022-11-25T04:03:59.579Z,0.00
2022-11-25T04:04:59.497Z,0.00
2022-11-25T04:05:59.493Z,0.00
2022-11-25T04:06:59.363Z,0.00
2022-11-25T04:07:59.366Z,0.00
2022-11-25T04:08:59.228Z,0.00
2022-11-25T04:09:59.185Z,0.00
2022-11-25T04:10:59.152Z,0.00
2022-11-25T04:11:59.019Z,0.00
2022-11-25T04:12:59.043Z,0.00
2022-11-25T04:13:58.931Z,0.00
2022-11-25T04:14:58.832Z,0.00
2022-11-25T04:15:58.772Z,0.00
2022-11-25T04:16:58.723Z,0.00
2022-11-25T04:17:58.638Z,0.00
2022-11-25T04:18:58.558Z,0.00
2022-11-25T04:19:58.474Z,0.00
2022-11-25T04:20:58.431Z,0.00
2022-11-25T04:21:58.389Z,0.00
2022-11-25T04:22:58.291Z,0.00
2022-11-25T04:23:58.260Z,0.00
2022-11-25T04:24:58.171Z,0.00
2022-11-25T04:25:58.081Z,0.00
2022-11-25T04:26:58.085Z,0.00
2022-11-25T04:27:58.027Z,0.00
2022-11-25T04:28:57.917Z,0.00
2022-11-25T04:29:57.823Z,0.00
2022-11-25T04:30:57.875Z,0.00
2022-11-25T04:31:57.730Z,0.00
2022-11-25T04:32:57.604Z,0.00
2022-11-25T04:33:57.534Z,0.00
2022-11-25T04:34:57.532Z,0.00
2022-11-25T04:35:57.528Z,0.00
2022-11-25T04:36:57.325Z,0.00
2022-11-25T04:37:57.255Z,0.00
2022-11-25T04:38:57.196Z,0.00
2022-11-25T04:39:57.148Z,0.00
2022-11-25T04:40:57.064Z,0.00
2022-11-25T04:41:57.064Z,0.00
2022-11-25T04:43:02.564Z,0.00
2022-11-25T04:43:56.992Z,0.00
2022-11-25T04:45:21.612Z,0.00
2022-11-25T04:46:13.427Z,0.00
2022-11-25T04:46:56.735Z,0.00
2022-11-25T04:47:56.608Z,0.00
2022-11-25T04:48:56.526Z,0.00
2022-11-25T04:49:56.452Z,0.00
2022-11-25T04:50:56.387Z,0.00
2022-11-25T04:51:56.315Z,0.00
2022-11-25T04:52:56.373Z,0.00
2022-11-25T04:53:56.163Z,0.00
2022-11-25T04:54:56.150Z,0.00
2022-11-25T04:55:56.041Z,0.00
2022-11-25T04:56:56.136Z,0.00
2022-11-25T04:57:55.953Z,0.00
2022-11-25T04:58:55.869Z,0.00
2022-11-25T04:59:55.784Z,0.00
2022-11-25T05:00:55.735Z,0.00
2022-11-25T05:01:55.669Z,0.00
2022-11-25T05:02:55.572Z,0.00
2022-11-25T05:03:57.638Z,0.00
2022-11-25T05:04:55.424Z,0.00
2022-11-25T05:05:55.514Z,0.00
2022-11-25T05:06:55.297Z,0.00
2022-11-25T05:07:55.244Z,0.00
2022-11-25T05:08:55.157Z,0.00
2022-11-25T05:09:55.135Z,0.00
2022-11-25T05:10:55.023Z,0.00
2022-11-25T05:11:55.068Z,0.00
2022-11-25T05:12:54.916Z,0.00
2022-11-25T05:13:54.861Z,0.00
2022-11-25T05:14:54.759Z,0.00
2022-11-25T05:15:54.677Z,0.00
2022-11-25T05:16:54.775Z,0.00
2022-11-25T05:17:54.556Z,0.00
2022-11-25T05:18:54.486Z,0.00
2022-11-25T05:19:54.397Z,0.00
2022-11-25T05:20:54.352Z,0.00
2022-11-25T05:21:54.267Z,0.00
2022-11-25T05:22:54.204Z,0.00
2022-11-25T05:23:55.991Z,0.00
2022-11-25T05:24:54.106Z,0.00
2022-11-25T05:25:54.014Z,0.00
2022-11-25T05:26:54.022Z,0.00
2022-11-25T05:27:53.933Z,0.00
2022-11-25T05:28:53.793Z,0.00
2022-11-25T05:29:56.232Z,0.00
2022-11-25T05:30:53.704Z,0.00
2022-11-25T05:31:53.634Z,0.00
2022-11-25T05:32:53.579Z,0.00
2022-11-25T05:33:53.446Z,0.00
2022-11-25T05:34:53.443Z,0.00
2022-11-25T05:35:53.377Z,0.00
2022-11-25T05:36:53.259Z,0.00
2022-11-25T05:37:53.260Z,0.00
2022-11-25T05:38:53.112Z,0.00
2022-11-25T05:39:53.064Z,0.00
2022-11-25T05:40:52.975Z,0.00
2022-11-25T05:41:52.932Z,0.00
2022-11-25T05:42:52.854Z,0.00
2022-11-25T05:43:52.774Z,0.00
2022-11-25T05:44:52.698Z,0.00
2022-11-25T05:45:52.685Z,0.00
2022-11-25T05:46:52.596Z,0.00
2022-11-25T05:47:52.506Z,0.00
2022-11-25T05:48:52.445Z,0.00
2022-11-25T05:49:52.374Z,0.00
2022-11-25T05:50:52.302Z,0.00
2022-11-25T05:51:52.232Z,0.00
2022-11-25T05:52:52.167Z,0.00
2022-11-25T05:53:52.112Z,0.00
2022-11-25T05:54:56.786Z,0.00
2022-11-25T05:55:51.955Z,0.00
2022-11-25T05:56:51.885Z,0.00
2022-11-25T05:57:51.863Z,0.00
2022-11-25T05:58:51.766Z,0.00
2022-11-25T05:59:51.828Z,0.00
2022-11-25T06:00:51.647Z,0.00
2022-11-25T06:01:51.669Z,0.00
2022-11-25T06:02:51.629Z,0.00
2022-11-25T06:03:51.463Z,0.00
2022-11-25T06:04:51.347Z,0.00
2022-11-25T06:05:51.343Z,0.00
2022-11-25T06:06:51.215Z,0.00
2022-11-25T06:07:51.177Z,0.00
2022-11-25T06:08:51.134Z,0.00
2022-11-25T06:09:51.067Z,0.00
2022-11-25T06:10:50.942Z,0.00
2022-11-25T06:11:50.974Z,0.00
2022-11-25T06:12:50.797Z,0.00
2022-11-25T06:13:50.891Z,0.00
2022-11-25T06:14:50.658Z,0.00
2022-11-25T06:15:50.638Z,0.00
2022-11-25T06:16:50.542Z,0.00
2022-11-25T06:17:50.469Z,0.00
2022-11-25T06:18:50.387Z,0.00
2022-11-25T06:19:50.418Z,0.00
2022-11-25T06:20:50.302Z,0.00
2022-11-25T06:21:50.204Z,0.00
2022-11-25T06:22:50.138Z,0.00
2022-11-25T06:23:50.105Z,0.00
2022-11-25T06:24:57.574Z,0.00
2022-11-25T06:25:49.916Z,0.00
2022-11-25T06:26:49.856Z,0.00
2022-11-25T06:28:11.831Z,0.00
2022-11-25T06:28:49.752Z,0.00
2022-11-25T06:29:49.648Z,0.00
2022-11-25T06:30:49.649Z,0.00
2022-11-25T06:31:49.565Z,0.00
2022-11-25T06:33:49.368Z,0.00
2022-11-25T06:34:49.305Z,0.00
2022-11-25T06:35:49.253Z,0.00
2022-11-25T06:36:49.455Z,0.00
2022-11-25T06:37:49.096Z,0.00
2022-11-25T06:38:49.086Z,5.63
2022-11-25T06:39:49.011Z,5.63
2022-11-25T06:40:48.949Z,5.63
2022-11-25T06:41:48.824Z,5.63
2022-11-25T06:42:48.751Z,5.63
2022-11-25T06:43:48.710Z,5.63
2022-11-25T06:44:48.617Z,5.63
2022-11-25T06:45:48.543Z,5.63
2022-11-25T06:46:48.551Z,5.63
2022-11-25T06:47:48.409Z,5.63
2022-11-25T06:48:48.340Z,11.25
2022-11-25T06:49:48.274Z,11.25
2022-11-25T06:50:48.243Z,11.25
2022-11-25T06:51:48.148Z,11.25
2022-11-25T06:52:48.095Z,11.25
2022-11-25T06:53:48.011Z,11.25
2022-11-25T06:54:47.972Z,11.25
2022-11-25T06:55:47.873Z,11.25
2022-11-25T06:56:47.792Z,11.25
2022-11-25T06:57:47.723Z,16.88
2022-11-25T06:58:47.727Z,16.88
2022-11-25T06:59:47.636Z,16.88
2022-11-25T07:00:47.518Z,16.88
2022-11-25T07:01:47.521Z,16.88
2022-11-25T07:02:48.869Z,16.88
2022-11-25T07:03:47.322Z,22.50
2022-11-25T07:04:47.265Z,22.50
2022-11-25T07:05:47.229Z,22.50
2022-11-25T07:06:47.136Z,22.50
2022-11-25T07:07:47.108Z,22.50
2022-11-25T07:08:46.970Z,22.50
2022-11-25T07:09:46.912Z,28.13
2022-11-25T07:10:46.836Z,28.13
2022-11-25T07:11:46.755Z,28.13
2022-11-25T07:12:46.777Z,28.13
2022-11-25T07:13:46.954Z,28.13
2022-11-25T07:14:46.574Z,28.13
2022-11-25T07:15:46.596Z,33.75
2022-11-25T07:16:46.417Z,39.38
2022-11-25T07:17:46.371Z,39.38
2022-11-25T07:18:46.542Z,39.38
2022-11-25T07:19:46.205Z,39.38
2022-11-25T07:20:46.144Z,39.38
2022-11-25T07:21:46.145Z,45.00
2022-11-25T07:22:46.018Z,39.38
2022-11-25T07:23:45.944Z,39.38
2022-11-25T07:24:45.977Z,39.38
2022-11-25T07:25:45.835Z,33.75
2022-11-25T07:26:45.735Z,33.75
2022-11-25T07:27:45.715Z,39.38
2022-11-25T07:28:45.629Z,45.00
2022-11-25T07:30:18.692Z,45.00
2022-11-25T07:31:45.403Z,33.75
2022-11-25T07:32:45.319Z,33.75
2022-11-25T07:33:45.333Z,45.00
2022-11-25T07:34:45.182Z,50.63
2022-11-25T07:35:45.118Z,45.00
2022-11-25T07:36:45.119Z,33.75
2022-11-25T07:37:45.011Z,39.38
2022-11-25T07:38:46.649Z,39.38
2022-11-25T07:39:44.833Z,39.38
2022-11-25T07:40:44.804Z,39.38
2022-11-25T07:41:44.699Z,39.38
2022-11-25T07:42:44.699Z,45.00
2022-11-25T07:43:44.564Z,45.00
2022-11-25T07:44:44.514Z,50.63
2022-11-25T07:45:44.436Z,56.25
2022-11-25T07:46:44.425Z,56.25
2022-11-25T07:47:44.280Z,56.25
2022-11-25T07:48:44.279Z,67.50
2022-11-25T07:49:44.165Z,78.75
2022-11-25T07:50:44.113Z,73.13
2022-11-25T07:51:44.047Z,78.75
2022-11-25T07:52:43.966Z,78.75
2022-11-25T07:53:43.882Z,78.75
2022-11-25T07:54:43.815Z,106.88
2022-11-25T07:55:43.861Z,140.63
2022-11-25T07:56:43.680Z,191.25
2022-11-25T07:57:43.600Z,213.75
2022-11-25T07:58:46.071Z,151.88
2022-11-25T07:59:43.489Z,106.88
2022-11-25T08:00:43.414Z,90.00
2022-11-25T08:01:43.414Z,84.38
2022-11-25T08:02:43.327Z,78.75
2022-11-25T08:03:43.217Z,84.38
2022-11-25T08:04:43.123Z,84.38
2022-11-25T08:05:43.069Z,84.38
2022-11-25T08:06:43.043Z,84.38
2022-11-25T08:07:43.005Z,84.38
2022-11-25T08:08:42.878Z,84.38
2022-11-25T08:09:42.810Z,84.38
2022-11-25T08:10:42.719Z,84.38
2022-11-25T08:11:42.656Z,84.38
2022-11-25T08:12:42.582Z,73.13
2022-11-25T08:13:42.518Z,78.75
2022-11-25T08:14:42.502Z,78.75
2022-11-25T08:15:42.738Z,84.38
2022-11-25T08:16:42.337Z,84.38
2022-11-25T08:17:42.262Z,95.63
2022-11-25T08:18:42.185Z,84.38
2022-11-25T08:19:42.122Z,90.00
2022-11-25T08:20:42.045Z,84.38
2022-11-25T08:21:42.007Z,84.38
2022-11-25T08:22:41.962Z,84.38
2022-11-25T08:23:41.841Z,84.38
2022-11-25T08:24:41.787Z,84.38
2022-11-25T08:25:44.974Z,90.00
2022-11-25T08:26:41.645Z,90.00
2022-11-25T08:27:41.562Z,90.00
2022-11-25T08:28:41.575Z,95.63
2022-11-25T08:29:41.445Z,84.38
2022-11-25T08:30:41.372Z,95.63
2022-11-25T08:31:41.385Z,90.00
2022-11-25T08:32:41.285Z,90.00
2022-11-25T08:33:41.177Z,84.38
2022-11-25T08:34:41.101Z,90.00
2022-11-25T08:35:41.038Z,90.00
2022-11-25T08:36:46.571Z,95.63
2022-11-25T08:37:40.930Z,90.00
2022-11-25T08:38:40.825Z,90.00
2022-11-25T08:39:56.686Z,90.00
2022-11-25T08:40:40.715Z,90.00
2022-11-25T08:41:40.629Z,95.63
2022-11-25T08:42:40.549Z,95.63
2022-11-25T08:43:40.514Z,95.63
2022-11-25T08:44:40.448Z,84.38
2022-11-25T08:45:40.339Z,95.63
2022-11-25T08:46:40.369Z,106.88
2022-11-25T08:47:40.209Z,112.50
2022-11-25T08:48:40.209Z,112.50
2022-11-25T08:49:41.520Z,118.13
2022-11-25T08:50:40.023Z,140.63
2022-11-25T08:51:40.075Z,151.88
2022-11-25T08:52:39.897Z,163.13
2022-11-25T08:53:39.802Z,157.50
2022-11-25T08:54:39.743Z,163.13
2022-11-25T08:55:39.677Z,151.88
2022-11-25T08:56:39.657Z,140.63
2022-11-25T08:57:39.662Z,163.13
2022-11-25T08:58:39.476Z,157.50
2022-11-25T08:59:39.921Z,163.13
2022-11-25T09:00:39.335Z,135.00
2022-11-25T09:01:39.354Z,135.00
2022-11-25T09:02:39.294Z,140.63
2022-11-25T09:03:39.137Z,146.25
2022-11-25T09:04:39.142Z,129.38
2022-11-25T09:05:39.028Z,135.00
2022-11-25T09:06:38.924Z,151.88
2022-11-25T09:07:38.929Z,151.88
2022-11-25T09:08:38.846Z,118.13
2022-11-25T09:09:39.164Z,112.50
2022-11-25T09:10:38.668Z,129.38
2022-11-25T09:11:38.760Z,129.38
2022-11-25T09:12:38.548Z,151.88
2022-11-25T09:13:38.599Z,146.25
2022-11-25T09:14:38.447Z,151.88
2022-11-25T09:15:38.379Z,163.13
2022-11-25T09:16:38.324Z,163.13
2022-11-25T09:17:38.210Z,174.38
2022-11-25T09:18:38.128Z,185.63
2022-11-25T09:19:38.320Z,236.25
2022-11-25T09:20:37.990Z,241.88
2022-11-25T09:21:37.977Z,202.50
2022-11-25T09:22:37.873Z,196.88
2022-11-25T09:23:37.837Z,264.38
2022-11-25T09:24:37.725Z,230.63
2022-11-25T09:25:37.664Z,315.00
2022-11-25T09:26:37.578Z,264.38
2022-11-25T09:27:37.546Z,208.13
2022-11-25T09:28:37.446Z,258.75
2022-11-25T09:29:37.582Z,247.50
2022-11-25T09:30:37.317Z,196.88
2022-11-25T09:31:37.351Z,298.13
2022-11-25T09:32:37.194Z,303.75
2022-11-25T09:33:37.111Z,241.88
2022-11-25T09:34:37.279Z,253.13
2022-11-25T09:35:37.000Z,292.50
2022-11-25T09:36:36.936Z,371.25
2022-11-25T09:37:36.845Z,427.50
2022-11-25T09:38:41.675Z,326.25
2022-11-25T09:39:36.973Z,298.13
2022-11-25T09:40:36.651Z,236.25
2022-11-25T09:41:36.580Z,225.00
2022-11-25T09:42:36.534Z,230.63
2022-11-25T09:43:36.455Z,219.38
2022-11-25T09:44:36.381Z,202.50
2022-11-25T09:45:36.317Z,202.50
2022-11-25T09:46:36.279Z,208.13
2022-11-25T09:47:36.200Z,196.88
2022-11-25T09:48:36.133Z,225.00
2022-11-25T09:49:36.330Z,202.50
2022-11-25T09:50:36.000Z,180.00
2022-11-25T09:51:35.920Z,180.00
2022-11-25T09:52:35.918Z,157.50
2022-11-25T09:53:35.816Z,151.88
2022-11-25T09:54:35.727Z,146.25
2022-11-25T09:55:35.673Z,174.38
2022-11-25T09:56:35.607Z,168.75
2022-11-25T09:57:35.549Z,168.75
2022-11-25T09:58:35.484Z,180.00
2022-11-25T09:59:35.728Z,180.00
2022-11-25T10:00:35.352Z,180.00
2022-11-25T10:01:35.263Z,225.00
2022-11-25T10:02:35.437Z,196.88
2022-11-25T10:03:35.180Z,241.88
2022-11-25T10:04:35.083Z,275.63
2022-11-25T10:05:35.003Z,354.38
2022-11-25T10:06:35.040Z,562.50
2022-11-25T10:07:34.894Z,376.88
2022-11-25T10:08:34.802Z,365.63
2022-11-25T10:09:35.143Z,247.50
2022-11-25T10:10:34.690Z,185.63
2022-11-25T10:11:34.618Z,129.38
2022-11-25T10:12:34.553Z,135.00
2022-11-25T10:13:34.469Z,140.63
2022-11-25T10:14:34.407Z,140.63
2022-11-25T10:15:34.336Z,219.38
2022-11-25T10:16:34.343Z,343.13
2022-11-25T10:17:34.226Z,922.50
2022-11-25T10:18:34.146Z,815.63
2022-11-25T10:19:34.498Z,433.13
2022-11-25T10:20:34.034Z,506.25
2022-11-25T10:21:33.947Z,444.38
2022-11-25T10:22:33.886Z,315.00
2022-11-25T10:23:33.826Z,337.50
2022-11-25T10:24:38.464Z,258.75
2022-11-25T10:25:33.781Z,213.75
2022-11-25T10:26:33.613Z,253.13
2022-11-25T10:27:33.535Z,208.13
2022-11-25T10:28:33.476Z,309.38
2022-11-25T10:29:33.423Z,461.25
2022-11-25T10:30:33.388Z,624.38
2022-11-25T10:31:33.348Z,556.88
2022-11-25T10:32:33.236Z,320.63
2022-11-25T10:33:33.153Z,247.50
2022-11-25T10:34:33.102Z,258.75
2022-11-25T10:35:33.049Z,444.38
2022-11-25T10:36:32.965Z,258.75
2022-11-25T10:37:32.887Z,365.63
2022-11-25T10:38:32.840Z,309.38
2022-11-25T10:39:32.762Z,286.88
2022-11-25T10:40:32.685Z,1006.88
2022-11-25T10:41:32.672Z,939.38
2022-11-25T10:42:32.558Z,1091.25
2022-11-25T10:43:32.627Z,990.00
2022-11-25T10:44:32.439Z,663.75
2022-11-25T10:45:32.380Z,832.50
2022-11-25T10:46:50.074Z,748.13
2022-11-25T10:47:32.361Z,607.50
2022-11-25T10:48:32.173Z,376.88
2022-11-25T10:49:32.133Z,303.75
2022-11-25T10:50:32.109Z,556.88
2022-11-25T10:51:32.227Z,450.00
2022-11-25T10:52:31.902Z,528.75
2022-11-25T10:53:31.853Z,691.88
2022-11-25T10:54:31.848Z,1012.50
2022-11-25T10:55:31.747Z,1147.50
2022-11-25T10:56:31.675Z,821.25
2022-11-25T10:57:31.605Z,900.00
2022-11-25T10:58:31.539Z,995.63
2022-11-25T10:59:31.483Z,1001.25
2022-11-25T11:00:31.418Z,900.00
2022-11-25T11:01:31.382Z,911.25
2022-11-25T11:02:31.306Z,669.38
2022-11-25T11:03:31.231Z,343.13
2022-11-25T11:04:31.171Z,286.88
2022-11-25T11:05:31.117Z,286.88
2022-11-25T11:06:31.105Z,270.00
2022-11-25T11:07:31.047Z,247.50
2022-11-25T11:08:30.903Z,241.88
2022-11-25T11:09:30.824Z,236.25
2022-11-25T11:10:30.769Z,236.25
2022-11-25T11:11:30.777Z,230.63
2022-11-25T11:12:30.822Z,219.38
2022-11-25T11:13:30.589Z,219.38
2022-11-25T11:14:30.524Z,213.75
2022-11-25T11:15:30.440Z,213.75
2022-11-25T11:16:30.489Z,208.13
2022-11-25T11:17:34.841Z,208.13
2022-11-25T11:18:30.254Z,202.50
2022-11-25T11:19:30.181Z,202.50
2022-11-25T11:20:30.121Z,196.88
2022-11-25T11:21:30.054Z,196.88
2022-11-25T11:22:29.993Z,196.88
2022-11-25T11:23:29.942Z,196.88
2022-11-25T11:24:29.882Z,191.25
2022-11-25T11:25:29.794Z,191.25
2022-11-25T11:26:29.744Z,191.25
2022-11-25T11:27:29.668Z,191.25
2022-11-25T11:28:29.632Z,191.25
2022-11-25T11:29:29.559Z,185.63
2022-11-25T11:30:29.465Z,185.63
2022-11-25T11:31:29.478Z,185.63
2022-11-25T11:32:29.369Z,174.38
2022-11-25T11:33:29.306Z,168.75
2022-11-25T11:34:29.238Z,180.00
2022-11-25T11:35:29.146Z,180.00
2022-11-25T11:36:29.098Z,180.00
2022-11-25T11:37:29.025Z,174.38
2022-11-25T11:38:28.961Z,174.38
2022-11-25T11:39:28.912Z,174.38
2022-11-25T11:40:28.837Z,168.75
2022-11-25T11:41:28.770Z,168.75
2022-11-25T11:42:28.682Z,168.75
2022-11-25T11:43:28.828Z,174.38
2022-11-25T11:44:28.553Z,168.75
2022-11-25T11:45:28.485Z,168.75
2022-11-25T11:46:28.517Z,168.75
2022-11-25T11:47:28.355Z,168.75
2022-11-25T11:48:28.319Z,163.13
2022-11-25T11:49:30.769Z,163.13
2022-11-25T11:50:28.169Z,163.13
2022-11-25T11:51:28.083Z,163.13
2022-11-25T11:52:28.015Z,163.13
2022-11-25T11:53:27.960Z,163.13
2022-11-25T11:54:27.947Z,157.50
2022-11-25T11:55:27.819Z,157.50
2022-11-25T11:56:35.196Z,151.88
2022-11-25T11:57:27.703Z,151.88
2022-11-25T11:58:27.621Z,151.88
2022-11-25T11:59:27.681Z,151.88
2022-11-25T12:00:27.501Z,146.25
2022-11-25T12:01:27.516Z,140.63
2022-11-25T12:02:27.385Z,140.63
2022-11-25T12:03:27.405Z,135.00
2022-11-25T12:04:27.237Z,135.00
2022-11-25T12:05:27.168Z,135.00
2022-11-25T12:06:27.093Z,135.00
2022-11-25T12:07:27.053Z,135.00
2022-11-25T12:08:26.956Z,129.38
2022-11-25T12:09:26.889Z,129.38
2022-11-25T12:10:26.844Z,129.38
2022-11-25T12:11:26.760Z,129.38
2022-11-25T12:12:26.730Z,118.13
2022-11-25T12:13:26.631Z,112.50
2022-11-25T12:14:26.552Z,123.75
2022-11-25T12:15:26.514Z,123.75
2022-11-25T12:16:26.467Z,118.13
2022-11-25T12:17:26.383Z,118.13
2022-11-25T12:18:26.300Z,118.13
2022-11-25T12:19:26.225Z,118.13
2022-11-25T12:20:26.171Z,118.13
2022-11-25T12:21:26.092Z,112.50
2022-11-25T12:22:26.054Z,112.50
2022-11-25T12:23:25.960Z,106.88
2022-11-25T12:24:25.886Z,106.88
2022-11-25T12:25:25.814Z,106.88
2022-11-25T12:26:25.770Z,106.88
2022-11-25T12:27:25.711Z,101.25
2022-11-25T12:28:25.622Z,101.25
2022-11-25T12:29:25.565Z,95.63
2022-11-25T12:30:25.535Z,95.63
2022-11-25T12:31:25.449Z,95.63
2022-11-25T12:32:25.345Z,95.63
2022-11-25T12:33:25.293Z,95.63
2022-11-25T12:34:25.248Z,95.63
2022-11-25T12:35:25.152Z,95.63
2022-11-25T12:36:25.102Z,95.63
2022-11-25T12:37:25.029Z,95.63
2022-11-25T12:38:24.962Z,95.63
2022-11-25T12:39:24.913Z,95.63
2022-11-25T12:40:24.820Z,95.63
2022-11-25T12:41:24.744Z,95.63
2022-11-25T12:42:24.687Z,90.00
2022-11-25T12:43:24.609Z,90.00
2022-11-25T12:44:24.541Z,90.00
2022-11-25T12:45:24.569Z,90.00
2022-11-25T12:46:24.473Z,90.00
2022-11-25T12:47:24.354Z,90.00
2022-11-25T12:48:24.280Z,90.00
2022-11-25T12:49:24.221Z,90.00
2022-11-25T12:50:24.138Z,90.00
2022-11-25T12:51:24.097Z,90.00
2022-11-25T12:52:24.006Z,90.00
2022-11-25T12:53:23.976Z,90.00
2022-11-25T12:54:23.898Z,90.00
2022-11-25T12:55:23.806Z,90.00
2022-11-25T12:56:23.742Z,90.00
2022-11-25T12:57:23.685Z,90.00
2022-11-25T12:58:23.694Z,90.00
2022-11-25T12:59:23.541Z,90.00